sensor_id;sensor_type;location;lat;lon;timestamp;temperature;humidity
31695;DHT22;18289;51.330;4.946;2022-11-15T00:00:51;9.40;99.90
31695;DHT22;18289;51.330;4.946;2022-11-15T00:03:19;9.50;99.90
31695;DHT22;18289;51.330;4.946;2022-11-15T00:05:46;9.60;99.90
31695;DHT22;18289;51.330;4.946;2022-11-15T00:08:11;9.60;99.90
31695;DHT22;18289;51.330;4.946;2022-11-15T00:10:37;9.60;99.90
31695;DHT22;18289;51.330;4.946;2022-11-15T00:13:11;9.70;99.90
31695;DHT22;18289;51.330;4.946;2022-11-15T00:15:38;9.70;99.90
31695;DHT22;18289;51.330;4.946;2022-11-15T00:18:05;9.70;99.90
31695;DHT22;18289;51.330;4.946;2022-11-15T00:20:33;9.80;99.90
31695;DHT22;18289;51.330;4.946;2022-11-15T00:22:59;9.70;99.90
31695;DHT22;18289;51.330;4.946;2022-11-15T00:25:25;9.70;99.90
31695;DHT22;18289;51.330;4.946;2022-11-15T00:27:54;9.70;99.90
31695;DHT22;18289;51.330;4.946;2022-11-15T00:30:20;9.80;99.90
31695;DHT22;18289;51.330;4.946;2022-11-15T00:32:45;9.80;99.90
31695;DHT22;18289;51.330;4.946;2022-11-15T00:35:11;9.80;99.90
31695;DHT22;18289;51.330;4.946;2022-11-15T00:37:38;9.90;99.90
31695;DHT22;18289;51.330;4.946;2022-11-15T00:40:04;9.90;99.90
31695;DHT22;18289;51.330;4.946;2022-11-15T00:42:29;9.90;99.90
31695;DHT22;18289;51.330;4.946;2022-11-15T00:44:55;10.00;99.90
31695;DHT22;18289;51.330;4.946;2022-11-15T00:47:21;10.00;99.90
31695;DHT22;18289;51.330;4.946;2022-11-15T00:49:46;10.00;99.90
31695;DHT22;18289;51.330;4.946;2022-11-15T00:52:12;10.00;99.90
31695;DHT22;18289;51.330;4.946;2022-11-15T00:54:38;10.00;99.90
31695;DHT22;18289;51.330;4.946;2022-11-15T00:57:03;10.00;99.90
31695;DHT22;18289;51.330;4.946;2022-11-15T00:59:29;10.00;99.90
31695;DHT22;18289;51.330;4.946;2022-11-15T01:01:55;10.10;99.90
31695;DHT22;18289;51.330;4.946;2022-11-15T01:04:20;10.10;99.90
31695;DHT22;18289;51.330;4.946;2022-11-15T01:06:46;10.20;99.90
31695;DHT22;18289;51.330;4.946;2022-11-15T01:09:12;10.20;99.90
31695;DHT22;18289;51.330;4.946;2022-11-15T01:11:38;10.30;99.90
31695;DHT22;18289;51.330;4.946;2022-11-15T01:14:04;10.40;99.90
31695;DHT22;18289;51.330;4.946;2022-11-15T01:16:30;10.40;99.90
31695;DHT22;18289;51.330;4.946;2022-11-15T01:18:56;10.40;99.90
31695;DHT22;18289;51.330;4.946;2022-11-15T01:21:22;10.60;99.90
31695;DHT22;18289;51.330;4.946;2022-11-15T01:23:47;10.50;99.90
31695;DHT22;18289;51.330;4.946;2022-11-15T01:26:14;10.40;99.90
31695;DHT22;18289;51.330;4.946;2022-11-15T01:28:42;10.60;99.90
31695;DHT22;18289;51.330;4.946;2022-11-15T01:31:12;10.70;99.90
31695;DHT22;18289;51.330;4.946;2022-11-15T01:33:38;10.70;99.90
31695;DHT22;18289;51.330;4.946;2022-11-15T01:36:05;10.80;99.90
31695;DHT22;18289;51.330;4.946;2022-11-15T01:38:31;10.80;99.90
31695;DHT22;18289;51.330;4.946;2022-11-15T01:40:57;10.80;99.90
31695;DHT22;18289;51.330;4.946;2022-11-15T01:43:27;10.80;99.90
31695;DHT22;18289;51.330;4.946;2022-11-15T01:46:21;10.90;99.90
31695;DHT22;18289;51.330;4.946;2022-11-15T01:48:48;10.90;99.90
31695;DHT22;18289;51.330;4.946;2022-11-15T01:51:16;10.90;99.90
31695;DHT22;18289;51.330;4.946;2022-11-15T01:53:46;11.00;99.90
31695;DHT22;18289;51.330;4.946;2022-11-15T01:56:13;11.00;99.90
31695;DHT22;18289;51.330;4.946;2022-11-15T01:58:41;11.00;99.90
31695;DHT22;18289;51.330;4.946;2022-11-15T02:01:07;11.10;99.90
31695;DHT22;18289;51.330;4.946;2022-11-15T02:03:58;11.10;99.90
31695;DHT22;18289;51.330;4.946;2022-11-15T02:06:24;11.20;99.90
31695;DHT22;18289;51.330;4.946;2022-11-15T02:08:50;11.10;99.90
31695;DHT22;18289;51.330;4.946;2022-11-15T02:11:16;11.20;99.90
31695;DHT22;18289;51.330;4.946;2022-11-15T02:13:42;11.20;99.90
31695;DHT22;18289;51.330;4.946;2022-11-15T02:32:49;11.40;99.90
31695;DHT22;18289;51.330;4.946;2022-11-15T02:43:06;11.50;99.90
31695;DHT22;18289;51.330;4.946;2022-11-15T02:46:17;11.60;99.90
31695;DHT22;18289;51.330;4.946;2022-11-15T02:48:45;11.60;99.90
31695;DHT22;18289;51.330;4.946;2022-11-15T02:51:12;11.60;99.90
31695;DHT22;18289;51.330;4.946;2022-11-15T02:53:38;11.60;99.90
31695;DHT22;18289;51.330;4.946;2022-11-15T02:56:04;11.50;99.90
31695;DHT22;18289;51.330;4.946;2022-11-15T02:59:13;11.50;99.90
31695;DHT22;18289;51.330;4.946;2022-11-15T03:04:37;11.70;99.90
31695;DHT22;18289;51.330;4.946;2022-11-15T03:12:54;11.70;99.90
31695;DHT22;18289;51.330;4.946;2022-11-15T03:15:31;11.60;99.90
31695;DHT22;18289;51.330;4.946;2022-11-15T03:18:04;11.60;99.90
31695;DHT22;18289;51.330;4.946;2022-11-15T03:20:31;11.60;99.90
31695;DHT22;18289;51.330;4.946;2022-11-15T03:23:03;11.60;99.90
31695;DHT22;18289;51.330;4.946;2022-11-15T03:25:30;11.50;99.90
31695;DHT22;18289;51.330;4.946;2022-11-15T03:27:59;11.50;99.90
31695;DHT22;18289;51.330;4.946;2022-11-15T03:30:27;11.50;99.90
31695;DHT22;18289;51.330;4.946;2022-11-15T03:32:56;11.60;99.90
31695;DHT22;18289;51.330;4.946;2022-11-15T03:35:29;11.60;99.90
31695;DHT22;18289;51.330;4.946;2022-11-15T03:38:00;11.60;99.90
31695;DHT22;18289;51.330;4.946;2022-11-15T03:40:58;11.50;99.90
31695;DHT22;18289;51.330;4.946;2022-11-15T03:46:06;11.60;99.90
31695;DHT22;18289;51.330;4.946;2022-11-15T03:48:41;11.60;99.90
31695;DHT22;18289;51.330;4.946;2022-11-15T03:51:09;11.60;99.90
31695;DHT22;18289;51.330;4.946;2022-11-15T03:53:35;11.60;99.90
31695;DHT22;18289;51.330;4.946;2022-11-15T03:56:01;11.70;99.90
31695;DHT22;18289;51.330;4.946;2022-11-15T03:58:27;11.60;99.90
31695;DHT22;18289;51.330;4.946;2022-11-15T04:00:52;11.70;99.90
31695;DHT22;18289;51.330;4.946;2022-11-15T04:03:18;11.70;99.90
31695;DHT22;18289;51.330;4.946;2022-11-15T04:05:44;11.60;99.90
31695;DHT22;18289;51.330;4.946;2022-11-15T04:08:09;11.70;99.90
31695;DHT22;18289;51.330;4.946;2022-11-15T04:10:35;11.60;99.90
31695;DHT22;18289;51.330;4.946;2022-11-15T04:13:02;11.60;99.90
31695;DHT22;18289;51.330;4.946;2022-11-15T04:15:27;11.60;99.90
31695;DHT22;18289;51.330;4.946;2022-11-15T04:17:56;11.60;99.90
31695;DHT22;18289;51.330;4.946;2022-11-15T04:20:25;11.60;99.90
31695;DHT22;18289;51.330;4.946;2022-11-15T04:23:21;11.50;99.90
31695;DHT22;18289;51.330;4.946;2022-11-15T04:26:10;11.60;99.90
31695;DHT22;18289;51.330;4.946;2022-11-15T04:28:37;11.60;99.90
31695;DHT22;18289;51.330;4.946;2022-11-15T04:31:21;11.60;99.90
31695;DHT22;18289;51.330;4.946;2022-11-15T04:33:47;11.60;99.90
31695;DHT22;18289;51.330;4.946;2022-11-15T04:36:12;11.70;99.90
31695;DHT22;18289;51.330;4.946;2022-11-15T04:38:56;11.70;99.90
31695;DHT22;18289;51.330;4.946;2022-11-15T04:41:22;11.80;99.90
31695;DHT22;18289;51.330;4.946;2022-11-15T04:43:48;11.80;99.90
31695;DHT22;18289;51.330;4.946;2022-11-15T04:46:13;11.70;99.90
31695;DHT22;18289;51.330;4.946;2022-11-15T04:48:39;11.70;99.90
31695;DHT22;18289;51.330;4.946;2022-11-15T04:51:05;11.70;99.90
31695;DHT22;18289;51.330;4.946;2022-11-15T04:53:30;11.80;99.90
31695;DHT22;18289;51.330;4.946;2022-11-15T04:55:56;11.80;99.90
31695;DHT22;18289;51.330;4.946;2022-11-15T04:58:22;11.80;99.90
31695;DHT22;18289;51.330;4.946;2022-11-15T05:00:47;11.80;99.90
31695;DHT22;18289;51.330;4.946;2022-11-15T05:03:13;11.70;99.90
31695;DHT22;18289;51.330;4.946;2022-11-15T05:05:58;11.70;99.90
31695;DHT22;18289;51.330;4.946;2022-11-15T05:08:24;11.70;99.90
31695;DHT22;18289;51.330;4.946;2022-11-15T05:10:50;11.70;99.90
31695;DHT22;18289;51.330;4.946;2022-11-15T05:13:16;11.70;99.90
31695;DHT22;18289;51.330;4.946;2022-11-15T05:15:42;11.70;99.90
31695;DHT22;18289;51.330;4.946;2022-11-15T05:18:07;11.70;99.90
31695;DHT22;18289;51.330;4.946;2022-11-15T05:20:33;11.80;99.90
31695;DHT22;18289;51.330;4.946;2022-11-15T05:22:59;11.80;99.90
31695;DHT22;18289;51.330;4.946;2022-11-15T05:25:25;11.70;99.90
31695;DHT22;18289;51.330;4.946;2022-11-15T05:27:51;11.80;99.90
31695;DHT22;18289;51.330;4.946;2022-11-15T05:30:17;11.80;99.90
31695;DHT22;18289;51.330;4.946;2022-11-15T05:32:43;11.80;99.90
31695;DHT22;18289;51.330;4.946;2022-11-15T05:35:12;11.80;99.90
31695;DHT22;18289;51.330;4.946;2022-11-15T05:37:40;11.80;99.90
31695;DHT22;18289;51.330;4.946;2022-11-15T05:40:06;11.80;99.90
31695;DHT22;18289;51.330;4.946;2022-11-15T05:42:32;11.80;99.90
31695;DHT22;18289;51.330;4.946;2022-11-15T05:44:59;11.80;99.90
31695;DHT22;18289;51.330;4.946;2022-11-15T05:47:27;11.90;99.90
31695;DHT22;18289;51.330;4.946;2022-11-15T05:49:55;11.80;99.90
31695;DHT22;18289;51.330;4.946;2022-11-15T05:52:23;11.70;99.90
31695;DHT22;18289;51.330;4.946;2022-11-15T05:54:50;11.70;99.90
31695;DHT22;18289;51.330;4.946;2022-11-15T05:57:17;11.80;99.90
31695;DHT22;18289;51.330;4.946;2022-11-15T05:59:43;11.70;99.90
31695;DHT22;18289;51.330;4.946;2022-11-15T06:02:09;11.70;99.90
31695;DHT22;18289;51.330;4.946;2022-11-15T06:04:35;11.70;99.90
31695;DHT22;18289;51.330;4.946;2022-11-15T06:07:01;11.60;99.90
31695;DHT22;18289;51.330;4.946;2022-11-15T06:09:27;11.60;99.90
31695;DHT22;18289;51.330;4.946;2022-11-15T06:11:53;11.70;99.90
31695;DHT22;18289;51.330;4.946;2022-11-15T06:14:18;11.60;99.90
31695;DHT22;18289;51.330;4.946;2022-11-15T06:16:44;11.60;99.90
31695;DHT22;18289;51.330;4.946;2022-11-15T06:19:10;11.60;99.90
31695;DHT22;18289;51.330;4.946;2022-11-15T06:21:35;11.60;99.90
31695;DHT22;18289;51.330;4.946;2022-11-15T06:24:04;11.50;99.90
31695;DHT22;18289;51.330;4.946;2022-11-15T06:26:30;11.30;99.90
31695;DHT22;18289;51.330;4.946;2022-11-15T06:28:56;11.40;99.90
31695;DHT22;18289;51.330;4.946;2022-11-15T06:31:21;11.40;99.90
31695;DHT22;18289;51.330;4.946;2022-11-15T06:33:47;11.30;99.90
31695;DHT22;18289;51.330;4.946;2022-11-15T06:36:15;11.40;99.90
31695;DHT22;18289;51.330;4.946;2022-11-15T06:38:42;11.30;99.90
31695;DHT22;18289;51.330;4.946;2022-11-15T06:41:09;11.30;99.90
31695;DHT22;18289;51.330;4.946;2022-11-15T06:43:36;11.30;99.90
31695;DHT22;18289;51.330;4.946;2022-11-15T06:46:03;11.20;99.90
31695;DHT22;18289;51.330;4.946;2022-11-15T06:48:30;11.20;99.90
31695;DHT22;18289;51.330;4.946;2022-11-15T06:50:58;11.20;99.90
31695;DHT22;18289;51.330;4.946;2022-11-15T06:53:24;11.20;99.90
31695;DHT22;18289;51.330;4.946;2022-11-15T06:55:50;11.10;99.90
31695;DHT22;18289;51.330;4.946;2022-11-15T06:58:16;11.10;99.90
31695;DHT22;18289;51.330;4.946;2022-11-15T07:00:42;11.10;99.90
31695;DHT22;18289;51.330;4.946;2022-11-15T07:03:08;11.10;99.90
31695;DHT22;18289;51.330;4.946;2022-11-15T07:05:34;11.00;99.90
31695;DHT22;18289;51.330;4.946;2022-11-15T07:08:00;11.00;99.90
31695;DHT22;18289;51.330;4.946;2022-11-15T07:10:26;11.00;99.90
31695;DHT22;18289;51.330;4.946;2022-11-15T07:12:54;11.00;99.90
31695;DHT22;18289;51.330;4.946;2022-11-15T07:15:22;10.90;99.90
31695;DHT22;18289;51.330;4.946;2022-11-15T07:17:48;11.00;99.90
31695;DHT22;18289;51.330;4.946;2022-11-15T07:20:14;10.90;99.90
31695;DHT22;18289;51.330;4.946;2022-11-15T07:22:41;10.80;99.90
31695;DHT22;18289;51.330;4.946;2022-11-15T07:25:07;10.90;99.90
31695;DHT22;18289;51.330;4.946;2022-11-15T07:27:33;10.90;99.90
31695;DHT22;18289;51.330;4.946;2022-11-15T07:29:59;10.90;99.90
31695;DHT22;18289;51.330;4.946;2022-11-15T07:32:25;10.90;99.90
31695;DHT22;18289;51.330;4.946;2022-11-15T07:34:50;11.00;99.90
31695;DHT22;18289;51.330;4.946;2022-11-15T07:37:16;11.00;99.90
31695;DHT22;18289;51.330;4.946;2022-11-15T07:39:43;10.90;99.90
31695;DHT22;18289;51.330;4.946;2022-11-15T07:42:08;10.80;99.90
31695;DHT22;18289;51.330;4.946;2022-11-15T07:44:52;10.80;99.90
31695;DHT22;18289;51.330;4.946;2022-11-15T07:47:18;10.70;99.90
31695;DHT22;18289;51.330;4.946;2022-11-15T07:49:44;10.80;99.90
31695;DHT22;18289;51.330;4.946;2022-11-15T07:52:11;10.80;99.90
31695;DHT22;18289;51.330;4.946;2022-11-15T07:54:37;10.70;99.90
31695;DHT22;18289;51.330;4.946;2022-11-15T07:57:03;10.70;99.90
31695;DHT22;18289;51.330;4.946;2022-11-15T07:59:29;10.60;99.90
31695;DHT22;18289;51.330;4.946;2022-11-15T08:01:55;10.70;99.90
31695;DHT22;18289;51.330;4.946;2022-11-15T08:04:21;10.70;99.90
31695;DHT22;18289;51.330;4.946;2022-11-15T08:06:47;10.60;99.90
31695;DHT22;18289;51.330;4.946;2022-11-15T08:09:13;10.60;99.90
31695;DHT22;18289;51.330;4.946;2022-11-15T08:11:38;10.70;99.90
31695;DHT22;18289;51.330;4.946;2022-11-15T08:14:04;10.70;99.90
31695;DHT22;18289;51.330;4.946;2022-11-15T08:16:30;10.70;99.90
31695;DHT22;18289;51.330;4.946;2022-11-15T08:18:55;10.70;99.90
31695;DHT22;18289;51.330;4.946;2022-11-15T08:21:21;10.80;99.90
31695;DHT22;18289;51.330;4.946;2022-11-15T08:23:47;10.80;99.90
31695;DHT22;18289;51.330;4.946;2022-11-15T08:26:13;10.80;99.90
31695;DHT22;18289;51.330;4.946;2022-11-15T08:28:39;10.90;99.90
31695;DHT22;18289;51.330;4.946;2022-11-15T08:31:05;11.00;99.90
31695;DHT22;18289;51.330;4.946;2022-11-15T08:33:31;11.00;99.90
31695;DHT22;18289;51.330;4.946;2022-11-15T08:35:59;11.00;99.90
31695;DHT22;18289;51.330;4.946;2022-11-15T08:38:25;11.00;99.90
31695;DHT22;18289;51.330;4.946;2022-11-15T08:40:55;11.20;99.90
31695;DHT22;18289;51.330;4.946;2022-11-15T08:43:25;11.20;99.90
31695;DHT22;18289;51.330;4.946;2022-11-15T08:45:50;11.30;99.90
31695;DHT22;18289;51.330;4.946;2022-11-15T08:48:16;11.40;99.90
31695;DHT22;18289;51.330;4.946;2022-11-15T08:50:42;11.40;99.90
31695;DHT22;18289;51.330;4.946;2022-11-15T08:53:09;11.60;99.90
31695;DHT22;18289;51.330;4.946;2022-11-15T08:55:39;11.80;99.90
31695;DHT22;18289;51.330;4.946;2022-11-15T08:58:05;11.80;99.90
31695;DHT22;18289;51.330;4.946;2022-11-15T09:00:32;11.90;99.90
31695;DHT22;18289;51.330;4.946;2022-11-15T09:02:58;11.90;99.90
31695;DHT22;18289;51.330;4.946;2022-11-15T09:05:25;12.00;99.90
31695;DHT22;18289;51.330;4.946;2022-11-15T09:07:54;12.10;99.90
31695;DHT22;18289;51.330;4.946;2022-11-15T09:10:20;12.20;99.90
31695;DHT22;18289;51.330;4.946;2022-11-15T09:12:46;12.20;99.90
31695;DHT22;18289;51.330;4.946;2022-11-15T09:15:15;12.20;99.90
31695;DHT22;18289;51.330;4.946;2022-11-15T09:17:41;12.20;99.90
31695;DHT22;18289;51.330;4.946;2022-11-15T09:20:08;12.10;99.90
31695;DHT22;18289;51.330;4.946;2022-11-15T09:22:34;12.20;99.90
31695;DHT22;18289;51.330;4.946;2022-11-15T09:24:59;12.20;99.90
31695;DHT22;18289;51.330;4.946;2022-11-15T09:27:29;12.30;99.90
31695;DHT22;18289;51.330;4.946;2022-11-15T09:29:55;12.40;99.90
31695;DHT22;18289;51.330;4.946;2022-11-15T09:32:21;12.50;99.90
31695;DHT22;18289;51.330;4.946;2022-11-15T09:34:49;12.60;99.90
31695;DHT22;18289;51.330;4.946;2022-11-15T09:37:14;12.70;99.90
31695;DHT22;18289;51.330;4.946;2022-11-15T09:39:40;12.60;99.90
31695;DHT22;18289;51.330;4.946;2022-11-15T09:47:34;12.20;99.90
31695;DHT22;18289;51.330;4.946;2022-11-15T09:50:10;12.30;99.90
31695;DHT22;18289;51.330;4.946;2022-11-15T09:52:37;12.40;99.90
31695;DHT22;18289;51.330;4.946;2022-11-15T09:55:11;12.40;99.90
31695;DHT22;18289;51.330;4.946;2022-11-15T10:00:36;12.30;99.90
31695;DHT22;18289;51.330;4.946;2022-11-15T10:03:18;12.30;99.90
31695;DHT22;18289;51.330;4.946;2022-11-15T10:05:50;12.60;99.90
31695;DHT22;18289;51.330;4.946;2022-11-15T10:11:08;13.00;99.90
31695;DHT22;18289;51.330;4.946;2022-11-15T10:13:38;13.40;99.90
31695;DHT22;18289;51.330;4.946;2022-11-15T10:21:46;14.40;99.90
31695;DHT22;18289;51.330;4.946;2022-11-15T10:24:19;14.70;99.90
31695;DHT22;18289;51.330;4.946;2022-11-15T10:26:47;14.30;99.90
31695;DHT22;18289;51.330;4.946;2022-11-15T10:29:21;13.90;99.90
31695;DHT22;18289;51.330;4.946;2022-11-15T10:31:48;13.90;99.90
31695;DHT22;18289;51.330;4.946;2022-11-15T10:34:16;14.20;99.90
31695;DHT22;18289;51.330;4.946;2022-11-15T10:36:58;14.60;99.90
31695;DHT22;18289;51.330;4.946;2022-11-15T10:39:24;15.40;99.90
31695;DHT22;18289;51.330;4.946;2022-11-15T10:41:50;16.20;99.90
31695;DHT22;18289;51.330;4.946;2022-11-15T10:44:28;17.40;99.90
31695;DHT22;18289;51.330;4.946;2022-11-15T10:49:27;19.40;99.90
31695;DHT22;18289;51.330;4.946;2022-11-15T10:54:42;20.60;99.90
31695;DHT22;18289;51.330;4.946;2022-11-15T10:57:21;20.30;99.90
31695;DHT22;18289;51.330;4.946;2022-11-15T10:59:53;19.70;99.90
31695;DHT22;18289;51.330;4.946;2022-11-15T11:02:33;19.00;99.90
31695;DHT22;18289;51.330;4.946;2022-11-15T11:05:01;18.70;99.90
31695;DHT22;18289;51.330;4.946;2022-11-15T11:07:29;18.40;99.90
31695;DHT22;18289;51.330;4.946;2022-11-15T11:10:24;18.40;99.90
31695;DHT22;18289;51.330;4.946;2022-11-15T11:12:49;18.30;99.90
31695;DHT22;18289;51.330;4.946;2022-11-15T11:15:16;18.00;99.90
31695;DHT22;18289;51.330;4.946;2022-11-15T11:18:07;18.00;99.90
31695;DHT22;18289;51.330;4.946;2022-11-15T11:31:16;20.30;99.90
31695;DHT22;18289;51.330;4.946;2022-11-15T11:36:45;21.00;99.90
31695;DHT22;18289;51.330;4.946;2022-11-15T11:47:23;21.30;99.90
31695;DHT22;18289;51.330;4.946;2022-11-15T11:49:52;21.50;99.90
31695;DHT22;18289;51.330;4.946;2022-11-15T12:00:21;20.80;99.90
31695;DHT22;18289;51.330;4.946;2022-11-15T12:05:54;19.90;99.90
31695;DHT22;18289;51.330;4.946;2022-11-15T12:08:27;18.70;99.90
31695;DHT22;18289;51.330;4.946;2022-11-15T12:11:14;18.30;99.90
31695;DHT22;18289;51.330;4.946;2022-11-15T12:13:42;17.60;99.90
31695;DHT22;18289;51.330;4.946;2022-11-15T12:16:27;17.40;99.90
31695;DHT22;18289;51.330;4.946;2022-11-15T12:18:55;17.20;99.90
31695;DHT22;18289;51.330;4.946;2022-11-15T12:24:11;16.90;99.90
31695;DHT22;18289;51.330;4.946;2022-11-15T12:26:53;16.50;99.90
31695;DHT22;18289;51.330;4.946;2022-11-15T12:29:30;16.20;99.90
31695;DHT22;18289;51.330;4.946;2022-11-15T12:31:57;15.80;99.90
31695;DHT22;18289;51.330;4.946;2022-11-15T12:36:55;15.30;99.90
31695;DHT22;18289;51.330;4.946;2022-11-15T12:44:57;15.00;99.90
31695;DHT22;18289;51.330;4.946;2022-11-15T12:47:26;14.90;99.90
31695;DHT22;18289;51.330;4.946;2022-11-15T12:49:52;14.80;99.90
31695;DHT22;18289;51.330;4.946;2022-11-15T12:52:18;14.70;99.90
31695;DHT22;18289;51.330;4.946;2022-11-15T12:54:58;14.60;99.90
31695;DHT22;18289;51.330;4.946;2022-11-15T12:57:30;14.60;99.90
31695;DHT22;18289;51.330;4.946;2022-11-15T13:03:16;14.60;99.90
31695;DHT22;18289;51.330;4.946;2022-11-15T13:08:08;14.30;99.90
31695;DHT22;18289;51.330;4.946;2022-11-15T13:10:33;14.20;99.90
31695;DHT22;18289;51.330;4.946;2022-11-15T13:13:06;14.20;99.90
31695;DHT22;18289;51.330;4.946;2022-11-15T13:15:35;14.20;99.90
31695;DHT22;18289;51.330;4.946;2022-11-15T13:20:49;14.40;99.90
31695;DHT22;18289;51.330;4.946;2022-11-15T13:23:15;14.20;99.90
31695;DHT22;18289;51.330;4.946;2022-11-15T13:28:47;14.30;99.90
31695;DHT22;18289;51.330;4.946;2022-11-15T13:31:37;14.30;99.90
31695;DHT22;18289;51.330;4.946;2022-11-15T13:34:33;14.20;99.90
31695;DHT22;18289;51.330;4.946;2022-11-15T13:36:59;14.20;99.90
31695;DHT22;18289;51.330;4.946;2022-11-15T13:39:31;14.20;99.90
31695;DHT22;18289;51.330;4.946;2022-11-15T13:41:57;14.20;99.90
31695;DHT22;18289;51.330;4.946;2022-11-15T13:44:28;14.30;99.90
31695;DHT22;18289;51.330;4.946;2022-11-15T13:47:27;14.30;99.90
31695;DHT22;18289;51.330;4.946;2022-11-15T13:49:53;14.30;99.90
31695;DHT22;18289;51.330;4.946;2022-11-15T13:52:19;14.20;99.90
31695;DHT22;18289;51.330;4.946;2022-11-15T13:55:11;14.40;99.90
31695;DHT22;18289;51.330;4.946;2022-11-15T13:57:49;14.50;99.90
31695;DHT22;18289;51.330;4.946;2022-11-15T14:00:41;14.40;99.90
31695;DHT22;18289;51.330;4.946;2022-11-15T14:03:30;14.40;99.90
31695;DHT22;18289;51.330;4.946;2022-11-15T14:06:16;14.30;99.90
31695;DHT22;18289;51.330;4.946;2022-11-15T14:09:42;14.30;99.90
31695;DHT22;18289;51.330;4.946;2022-11-15T14:11:53;14.20;99.90
31695;DHT22;18289;51.330;4.946;2022-11-15T14:14:22;14.30;99.90
31695;DHT22;18289;51.330;4.946;2022-11-15T14:16:55;14.30;99.90
31695;DHT22;18289;51.330;4.946;2022-11-15T14:22:16;14.20;99.90
31695;DHT22;18289;51.330;4.946;2022-11-15T14:24:44;14.20;99.90
31695;DHT22;18289;51.330;4.946;2022-11-15T14:27:21;14.10;99.90
31695;DHT22;18289;51.330;4.946;2022-11-15T14:29:47;14.10;99.90
31695;DHT22;18289;51.330;4.946;2022-11-15T14:32:28;14.10;99.90
31695;DHT22;18289;51.330;4.946;2022-11-15T14:34:59;14.00;99.90
31695;DHT22;18289;51.330;4.946;2022-11-15T14:37:31;14.00;99.90
31695;DHT22;18289;51.330;4.946;2022-11-15T14:40:00;13.90;99.90
31695;DHT22;18289;51.330;4.946;2022-11-15T14:42:25;14.00;99.90
31695;DHT22;18289;51.330;4.946;2022-11-15T14:44:51;13.90;99.90
31695;DHT22;18289;51.330;4.946;2022-11-15T14:47:18;13.90;99.90
31695;DHT22;18289;51.330;4.946;2022-11-15T14:49:44;13.90;99.90
31695;DHT22;18289;51.330;4.946;2022-11-15T14:52:26;13.90;99.90
31695;DHT22;18289;51.330;4.946;2022-11-15T14:54:53;13.90;99.90
31695;DHT22;18289;51.330;4.946;2022-11-15T14:57:19;13.90;99.90
31695;DHT22;18289;51.330;4.946;2022-11-15T14:59:45;13.90;99.90
31695;DHT22;18289;51.330;4.946;2022-11-15T15:02:22;13.80;99.90
31695;DHT22;18289;51.330;4.946;2022-11-15T15:04:49;13.80;99.90
31695;DHT22;18289;51.330;4.946;2022-11-15T15:07:15;13.70;99.90
31695;DHT22;18289;51.330;4.946;2022-11-15T15:09:41;13.70;99.90
31695;DHT22;18289;51.330;4.946;2022-11-15T15:12:33;13.70;99.90
31695;DHT22;18289;51.330;4.946;2022-11-15T15:14:59;13.60;99.90
31695;DHT22;18289;51.330;4.946;2022-11-15T15:17:25;13.60;99.90
31695;DHT22;18289;51.330;4.946;2022-11-15T15:19:50;13.60;99.90
31695;DHT22;18289;51.330;4.946;2022-11-15T15:22:17;13.50;99.90
31695;DHT22;18289;51.330;4.946;2022-11-15T15:24:45;13.40;99.90
31695;DHT22;18289;51.330;4.946;2022-11-15T15:27:11;13.20;99.90
31695;DHT22;18289;51.330;4.946;2022-11-15T15:29:37;13.00;99.90
31695;DHT22;18289;51.330;4.946;2022-11-15T15:32:03;12.80;99.90
31695;DHT22;18289;51.330;4.946;2022-11-15T15:34:29;12.70;99.90
31695;DHT22;18289;51.330;4.946;2022-11-15T15:39:45;12.50;99.90
31695;DHT22;18289;51.330;4.946;2022-11-15T15:42:11;12.40;99.90
31695;DHT22;18289;51.330;4.946;2022-11-15T15:44:36;12.30;99.90
31695;DHT22;18289;51.330;4.946;2022-11-15T15:47:10;12.30;99.90
31695;DHT22;18289;51.330;4.946;2022-11-15T15:49:37;12.20;99.90
31695;DHT22;18289;51.330;4.946;2022-11-15T15:52:03;12.20;99.90
31695;DHT22;18289;51.330;4.946;2022-11-15T15:54:28;12.10;99.90
31695;DHT22;18289;51.330;4.946;2022-11-15T15:56:54;12.00;99.90
31695;DHT22;18289;51.330;4.946;2022-11-15T15:59:20;12.10;99.90
31695;DHT22;18289;51.330;4.946;2022-11-15T16:01:45;12.10;99.90
31695;DHT22;18289;51.330;4.946;2022-11-15T16:04:11;12.00;99.90
31695;DHT22;18289;51.330;4.946;2022-11-15T16:06:40;12.00;99.90
31695;DHT22;18289;51.330;4.946;2022-11-15T16:09:16;12.00;99.90
31695;DHT22;18289;51.330;4.946;2022-11-15T16:11:44;12.00;99.90
31695;DHT22;18289;51.330;4.946;2022-11-15T16:14:10;12.00;99.90
31695;DHT22;18289;51.330;4.946;2022-11-15T16:16:36;12.00;99.90
31695;DHT22;18289;51.330;4.946;2022-11-15T16:19:03;11.90;99.90
31695;DHT22;18289;51.330;4.946;2022-11-15T16:21:29;11.90;99.90
31695;DHT22;18289;51.330;4.946;2022-11-15T16:23:55;11.90;99.90
31695;DHT22;18289;51.330;4.946;2022-11-15T16:26:25;11.90;99.90
31695;DHT22;18289;51.330;4.946;2022-11-15T16:28:51;11.80;99.90
31695;DHT22;18289;51.330;4.946;2022-11-15T16:31:17;11.80;99.90
31695;DHT22;18289;51.330;4.946;2022-11-15T16:33:45;11.80;99.90
31695;DHT22;18289;51.330;4.946;2022-11-15T16:36:25;11.80;99.90
31695;DHT22;18289;51.330;4.946;2022-11-15T16:38:51;11.70;99.90
31695;DHT22;18289;51.330;4.946;2022-11-15T16:41:17;11.70;99.90
31695;DHT22;18289;51.330;4.946;2022-11-15T16:43:47;11.70;99.90
31695;DHT22;18289;51.330;4.946;2022-11-15T16:46:24;11.70;99.90
31695;DHT22;18289;51.330;4.946;2022-11-15T16:48:50;11.70;99.90
31695;DHT22;18289;51.330;4.946;2022-11-15T16:51:16;11.70;99.90
31695;DHT22;18289;51.330;4.946;2022-11-15T16:53:42;11.70;99.90
31695;DHT22;18289;51.330;4.946;2022-11-15T16:58:44;11.80;99.90
31695;DHT22;18289;51.330;4.946;2022-11-15T17:01:16;11.80;99.90
31695;DHT22;18289;51.330;4.946;2022-11-15T17:03:43;11.70;99.90
31695;DHT22;18289;51.330;4.946;2022-11-15T17:06:09;11.70;99.90
31695;DHT22;18289;51.330;4.946;2022-11-15T17:08:36;11.70;99.90
31695;DHT22;18289;51.330;4.946;2022-11-15T17:11:05;11.70;99.90
31695;DHT22;18289;51.330;4.946;2022-11-15T17:13:31;11.70;99.90
31695;DHT22;18289;51.330;4.946;2022-11-15T17:16:10;11.70;99.90
31695;DHT22;18289;51.330;4.946;2022-11-15T17:18:36;11.50;99.90
31695;DHT22;18289;51.330;4.946;2022-11-15T17:23:31;11.70;99.90
31695;DHT22;18289;51.330;4.946;2022-11-15T17:26:01;11.70;99.90
31695;DHT22;18289;51.330;4.946;2022-11-15T17:28:30;12.00;99.90
31695;DHT22;18289;51.330;4.946;2022-11-15T17:30:56;11.70;99.90
31695;DHT22;18289;51.330;4.946;2022-11-15T17:33:22;11.70;99.90
31695;DHT22;18289;51.330;4.946;2022-11-15T17:35:58;11.70;99.90
31695;DHT22;18289;51.330;4.946;2022-11-15T17:38:24;11.70;99.90
31695;DHT22;18289;51.330;4.946;2022-11-15T17:43:30;11.70;99.90
31695;DHT22;18289;51.330;4.946;2022-11-15T17:45:57;11.70;99.90
31695;DHT22;18289;51.330;4.946;2022-11-15T17:48:23;11.80;99.90
31695;DHT22;18289;51.330;4.946;2022-11-15T17:50:57;11.80;99.90